Time;durP1;ratioP1;P1;durP2;ratioP2;P2;SDS_P1;SDS_P2;PMS_P1;PMS_P2;Temp;Humidity;BMP_temperature;BMP_pressure;BME280_temperature;BME280_humidity;BME280_pressure;Samples;Min_cycle;Max_cycle;Signal;HPM_P1;HPM_P2
2021/09/25 00:01:47;;;;;;;12.50;9.95;;;11.70;99.90;;;;;;5074827;28;20066;-68
2021/09/25 00:04:13;;;;;;;12.07;9.93;;;11.70;99.90;;;;;;5092235;28;20032;-67
2021/09/25 00:06:39;;;;;;;11.50;10.02;;;11.70;99.90;;;;;;5092842;28;20545;-67
2021/09/25 00:09:05;;;;;;;11.85;10.10;;;11.60;99.90;;;;;;5092214;28;20055;-66
2021/09/25 00:11:31;;;;;;;12.13;9.80;;;11.60;99.90;;;;;;5092846;28;20150;-66
2021/09/25 00:13:57;;;;;;;10.50;9.38;;;11.60;99.90;;;;;;5091384;28;20044;-66
2021/09/25 00:16:26;;;;;;;13.55;9.73;;;11.60;99.90;;;;;;5092151;28;20124;-67
2021/09/25 00:18:56;;;;;;;10.32;9.13;;;11.60;99.90;;;;;;5092700;28;20032;-67
2021/09/25 00:21:23;;;;;;;13.27;10.23;;;11.60;99.90;;;;;;5092490;28;20039;-67
2021/09/25 00:23:48;;;;;;;11.48;9.23;;;11.50;99.90;;;;;;5092431;28;20080;-67
2021/09/25 00:26:14;;;;;;;12.48;10.10;;;11.50;99.90;;;;;;5091578;28;20040;-68
2021/09/25 00:28:40;;;;;;;12.32;9.05;;;11.40;99.90;;;;;;5093066;28;20046;-67
2021/09/25 00:31:06;;;;;;;14.38;10.90;;;11.40;99.90;;;;;;5091553;28;20429;-66
2021/09/25 00:33:31;;;;;;;14.20;10.23;;;11.40;99.90;;;;;;5092489;28;20031;-67
2021/09/25 00:35:57;;;;;;;18.08;11.90;;;11.30;99.90;;;;;;5092125;28;20508;-67
2021/09/25 00:38:23;;;;;;;14.35;11.38;;;11.30;99.90;;;;;;5092166;28;20028;-67
2021/09/25 00:40:49;;;;;;;13.60;11.27;;;11.30;99.90;;;;;;5092210;28;20462;-66
2021/09/25 00:43:15;;;;;;;18.42;12.15;;;11.30;99.90;;;;;;5091640;28;20032;-67
2021/09/25 00:45:40;;;;;;;15.77;12.32;;;11.30;99.90;;;;;;5091727;28;20062;-66
2021/09/25 00:48:06;;;;;;;14.48;10.35;;;11.30;99.90;;;;;;5091326;28;20065;-66
2021/09/25 00:50:32;;;;;;;14.10;10.40;;;11.20;99.90;;;;;;5092054;28;20051;-66
2021/09/25 00:52:57;;;;;;;15.25;10.60;;;11.20;99.90;;;;;;5091932;28;20024;-66
2021/09/25 00:55:24;;;;;;;15.02;11.00;;;11.10;99.90;;;;;;5092135;28;20036;-67
2021/09/25 00:57:59;;;;;;;11.13;9.35;;;11.10;99.90;;;;;;5074140;28;20024;-67
2021/09/25 01:00:26;;;;;;;12.45;9.80;;;11.00;99.90;;;;;;5092138;28;20028;-67
2021/09/25 01:02:51;;;;;;;15.38;11.10;;;11.00;99.90;;;;;;5092094;28;20028;-67
2021/09/25 01:05:20;;;;;;;13.43;10.07;;;11.00;99.90;;;;;;5090988;28;20043;-67
2021/09/25 01:07:46;;;;;;;14.75;11.15;;;11.00;99.90;;;;;;5092075;28;20028;-68
2021/09/25 01:10:12;;;;;;;12.82;10.27;;;11.00;99.90;;;;;;5091077;28;20024;-67
2021/09/25 01:12:37;;;;;;;13.30;9.90;;;11.00;99.90;;;;;;5091758;28;20543;-68
2021/09/25 01:15:06;;;;;;;12.52;10.02;;;11.00;99.90;;;;;;5090659;28;20031;-67
2021/09/25 01:17:32;;;;;;;13.98;10.50;;;11.00;99.90;;;;;;5091978;28;20063;-67
2021/09/25 01:19:58;;;;;;;16.30;10.88;;;11.00;99.90;;;;;;5091603;28;20027;-67
2021/09/25 01:22:23;;;;;;;11.52;9.60;;;10.90;99.90;;;;;;5091316;28;20020;-68
2021/09/25 01:24:50;;;;;;;12.88;10.38;;;11.00;99.90;;;;;;5091552;28;20028;-68
2021/09/25 01:27:15;;;;;;;12.50;10.20;;;10.90;99.90;;;;;;5090775;28;20032;-69
2021/09/25 01:29:41;;;;;;;13.65;9.18;;;10.90;99.90;;;;;;5091971;28;20028;-69
2021/09/25 01:32:08;;;;;;;13.55;9.95;;;10.90;99.90;;;;;;5090551;28;20032;-68
2021/09/25 01:34:34;;;;;;;10.68;9.45;;;10.90;99.90;;;;;;5091543;28;20035;-68
2021/09/25 01:37:00;;;;;;;11.80;9.10;;;10.90;99.90;;;;;;5091322;28;20024;-68
2021/09/25 01:39:26;;;;;;;12.32;9.85;;;10.80;99.90;;;;;;5091094;28;20028;-68
2021/09/25 01:41:52;;;;;;;12.88;10.25;;;10.80;99.90;;;;;;5090883;28;20757;-68
2021/09/25 01:44:18;;;;;;;12.88;9.60;;;10.70;99.90;;;;;;5090916;28;20032;-68
2021/09/25 01:46:43;;;;;;;11.75;9.20;;;10.70;99.90;;;;;;5091400;28;20027;-69
2021/09/25 01:49:09;;;;;;;11.20;9.40;;;10.60;99.90;;;;;;5072578;28;20032;-68
2021/09/25 01:51:36;;;;;;;12.98;9.55;;;10.60;99.90;;;;;;5091083;28;20115;-68
2021/09/25 01:54:05;;;;;;;13.27;10.35;;;10.60;99.90;;;;;;5090916;28;20081;-68
2021/09/25 01:56:30;;;;;;;13.48;9.90;;;10.60;99.90;;;;;;5091233;28;20028;-68
2021/09/25 01:58:56;;;;;;;11.95;9.55;;;10.60;99.90;;;;;;5095251;28;20036;-68
2021/09/25 02:01:22;;;;;;;13.30;10.65;;;10.60;99.90;;;;;;5094248;28;20028;-68
2021/09/25 02:03:47;;;;;;;10.98;9.25;;;10.60;99.90;;;;;;5095468;28;20519;-67
2021/09/25 02:06:13;;;;;;;12.50;9.85;;;10.60;99.90;;;;;;5094788;28;20055;-67
2021/09/25 02:08:40;;;;;;;13.48;9.48;;;10.60;99.90;;;;;;5094214;28;20492;-67
2021/09/25 02:11:07;;;;;;;13.55;9.23;;;10.60;99.90;;;;;;5093933;28;20028;-67
2021/09/25 02:13:33;;;;;;;13.98;9.80;;;10.50;99.90;;;;;;5095131;28;20122;-67
2021/09/25 02:16:00;;;;;;;13.43;9.80;;;10.50;99.90;;;;;;5095068;28;20039;-67
2021/09/25 02:18:26;;;;;;;12.90;10.32;;;10.40;99.90;;;;;;5076121;28;20028;-67
2021/09/25 02:20:54;;;;;;;13.50;9.80;;;10.40;99.90;;;;;;5094320;28;20115;-67
2021/09/25 02:23:19;;;;;;;11.48;9.18;;;10.30;99.90;;;;;;5075309;28;20177;-67
2021/09/25 02:25:45;;;;;;;16.55;9.90;;;10.30;99.90;;;;;;5094691;28;20473;-67
2021/09/25 02:28:11;;;;;;;18.83;10.93;;;10.30;99.90;;;;;;5094260;28;20043;-68
2021/09/25 02:30:36;;;;;;;13.82;10.63;;;10.30;99.90;;;;;;5093211;28;20028;-68
2021/09/25 02:33:02;;;;;;;13.25;10.35;;;10.30;99.90;;;;;;5092989;28;20046;-67
2021/09/25 02:35:28;;;;;;;11.13;9.25;;;10.40;99.90;;;;;;5093126;28;20331;-68
2021/09/25 02:37:54;;;;;;;13.68;9.55;;;10.30;99.90;;;;;;5093313;28;20033;-68
2021/09/25 02:40:23;;;;;;;10.65;9.30;;;10.40;99.90;;;;;;5092323;28;20507;-68
2021/09/25 02:42:50;;;;;;;12.68;9.15;;;10.30;99.90;;;;;;5093146;28;20493;-67
2021/09/25 02:45:16;;;;;;;13.43;9.77;;;10.30;99.90;;;;;;5092240;28;20055;-68
2021/09/25 02:47:43;;;;;;;11.43;9.77;;;10.20;99.90;;;;;;5093147;28;20036;-68
2021/09/25 02:50:11;;;;;;;17.88;9.90;;;10.20;99.90;;;;;;5093165;28;20034;-68
2021/09/25 02:52:37;;;;;;;11.48;9.57;;;10.20;99.90;;;;;;5094716;28;20035;-68
2021/09/25 02:55:03;;;;;;;14.98;10.65;;;10.20;99.90;;;;;;5094331;28;20032;-67
2021/09/25 02:57:29;;;;;;;19.40;11.75;;;10.10;99.90;;;;;;5093700;28;20077;-67
2021/09/25 02:59:55;;;;;;;19.10;11.48;;;10.10;99.90;;;;;;5094266;28;20055;-67
2021/09/25 03:02:20;;;;;;;14.80;11.23;;;10.10;99.90;;;;;;5093192;28;20020;-67
2021/09/25 03:04:46;;;;;;;14.57;10.52;;;10.10;99.90;;;;;;5094322;28;20025;-67
2021/09/25 03:07:11;;;;;;;14.82;11.88;;;10.10;99.90;;;;;;5092971;28;20455;-67
2021/09/25 03:09:37;;;;;;;13.77;11.18;;;10.00;99.90;;;;;;5093841;28;20051;-67
2021/09/25 03:12:03;;;;;;;13.15;10.13;;;10.00;99.90;;;;;;5093763;28;20063;-67
2021/09/25 03:14:29;;;;;;;16.15;12.25;;;10.00;99.90;;;;;;5093941;28;20070;-67
2021/09/25 03:16:54;;;;;;;16.30;10.70;;;9.90;99.90;;;;;;5093797;28;20036;-67
2021/09/25 03:19:20;;;;;;;12.77;10.38;;;9.90;99.90;;;;;;5092781;28;20101;-67
2021/09/25 03:21:46;;;;;;;15.65;11.07;;;9.90;99.90;;;;;;5093783;28;20044;-68
2021/09/25 03:24:12;;;;;;;12.57;10.68;;;9.90;99.90;;;;;;5093210;28;20030;-67
2021/09/25 03:26:37;;;;;;;14.05;10.27;;;9.90;99.90;;;;;;5093728;28;20024;-67
2021/09/25 03:29:04;;;;;;;14.35;10.45;;;9.90;99.90;;;;;;5093093;28;20059;-67
2021/09/25 03:31:30;;;;;;;12.57;10.38;;;9.90;99.90;;;;;;5075056;28;20036;-67
2021/09/25 03:33:56;;;;;;;13.63;9.95;;;9.90;99.90;;;;;;5093211;28;20849;-68
2021/09/25 03:36:22;;;;;;;11.75;9.05;;;9.90;99.90;;;;;;5092873;28;20032;-68
2021/09/25 03:38:48;;;;;;;14.10;9.85;;;9.80;99.90;;;;;;5093660;28;20055;-68
2021/09/25 03:41:14;;;;;;;15.52;9.73;;;9.80;99.90;;;;;;5092688;28;20083;-67
2021/09/25 03:43:39;;;;;;;14.15;9.65;;;9.80;99.90;;;;;;5093269;28;20082;-68
2021/09/25 03:46:05;;;;;;;14.00;9.57;;;9.80;99.90;;;;;;5092727;28;20028;-67
2021/09/25 03:48:31;;;;;;;13.48;10.68;;;9.80;99.90;;;;;;5093420;28;20054;-68
2021/09/25 03:50:58;;;;;;;15.38;11.13;;;9.80;99.90;;;;;;5093100;28;20097;-67
2021/09/25 03:53:24;;;;;;;13.63;10.27;;;9.80;99.90;;;;;;5092762;28;20024;-68
2021/09/25 03:55:49;;;;;;;15.25;10.95;;;9.80;99.90;;;;;;5093511;28;20024;-68
2021/09/25 03:58:15;;;;;;;12.45;10.18;;;9.80;99.90;;;;;;5092512;28;20032;-68
2021/09/25 04:00:44;;;;;;;13.65;10.68;;;9.70;99.90;;;;;;5093262;28;20097;-68
2021/09/25 04:03:11;;;;;;;11.70;9.63;;;9.70;99.90;;;;;;5092539;28;20362;-67
2021/09/25 04:05:37;;;;;;;13.18;9.43;;;9.70;99.90;;;;;;5092427;28;20469;-68
2021/09/25 04:08:03;;;;;;;15.57;10.35;;;9.70;99.90;;;;;;5092980;28;20028;-67
2021/09/25 04:10:29;;;;;;;12.13;9.95;;;9.60;99.90;;;;;;5092541;28;20028;-67
2021/09/25 04:12:55;;;;;;;14.05;10.73;;;9.60;99.90;;;;;;5092731;28;20500;-68
2021/09/25 04:15:22;;;;;;;12.55;9.75;;;9.60;99.90;;;;;;5092380;28;20093;-68
2021/09/25 04:17:48;;;;;;;14.98;10.02;;;9.60;99.90;;;;;;5092571;28;20016;-67
2021/09/25 04:20:14;;;;;;;12.55;9.35;;;9.60;99.90;;;;;;5091593;28;20024;-67
2021/09/25 04:22:40;;;;;;;14.07;9.10;;;9.60;99.90;;;;;;5092241;28;20093;-68
2021/09/25 04:25:06;;;;;;;11.88;9.18;;;9.60;99.90;;;;;;5092463;28;20032;-67
2021/09/25 04:27:32;;;;;;;17.08;10.68;;;9.60;99.90;;;;;;5092333;28;20024;-68
2021/09/25 04:30:00;;;;;;;14.68;9.65;;;9.60;99.90;;;;;;5091950;28;20037;-68
2021/09/25 04:32:26;;;;;;;12.02;9.68;;;9.60;99.90;;;;;;5091931;28;20024;-68
2021/09/25 04:34:52;;;;;;;14.35;10.65;;;9.60;99.90;;;;;;5092799;28;20028;-68
2021/09/25 04:37:18;;;;;;;14.30;10.23;;;9.60;99.90;;;;;;5091212;28;20024;-67
2021/09/25 04:39:44;;;;;;;12.90;10.00;;;9.60;99.90;;;;;;5092332;28;20469;-67
2021/09/25 04:42:11;;;;;;;12.95;10.40;;;9.60;99.90;;;;;;5091283;28;20055;-67
2021/09/25 04:44:36;;;;;;;12.50;9.32;;;9.60;99.90;;;;;;5091994;28;20420;-67
2021/09/25 04:47:02;;;;;;;14.60;10.38;;;9.60;99.90;;;;;;5073737;28;20054;-67
2021/09/25 04:49:28;;;;;;;13.75;10.40;;;9.70;99.90;;;;;;5091451;28;20032;-67
2021/09/25 04:51:54;;;;;;;13.90;10.02;;;9.80;99.90;;;;;;5092360;28;20040;-67
2021/09/25 04:54:19;;;;;;;13.20;10.35;;;9.80;99.90;;;;;;5073484;28;20043;-67
2021/09/25 04:56:45;;;;;;;11.95;9.70;;;9.80;99.90;;;;;;5092430;28;20117;-67
2021/09/25 04:59:11;;;;;;;15.00;9.90;;;9.80;99.90;;;;;;5091160;28;20055;-67
2021/09/25 05:01:36;;;;;;;16.55;9.90;;;9.80;99.90;;;;;;5091266;28;20474;-67
2021/09/25 05:04:03;;;;;;;12.57;9.45;;;9.80;99.90;;;;;;5092156;28;20032;-67
2021/09/25 05:06:31;;;;;;;11.02;8.75;;;9.80;99.90;;;;;;5091090;28;20046;-69
2021/09/25 05:08:57;;;;;;;13.35;10.10;;;9.70;99.90;;;;;;5092048;28;20134;-69
2021/09/25 05:11:24;;;;;;;12.52;9.57;;;9.70;99.90;;;;;;5090709;28;20051;-70
2021/09/25 05:13:51;;;;;;;12.70;9.85;;;9.70;99.90;;;;;;5091749;28;20043;-70
2021/09/25 05:16:22;;;;;;;15.25;10.48;;;9.60;99.90;;;;;;5090598;28;20036;-70
2021/09/25 05:18:48;;;;;;;15.05;10.40;;;9.60;99.90;;;;;;5089093;28;20043;-72
2021/09/25 05:21:13;;;;;;;14.30;9.73;;;9.50;99.90;;;;;;5089305;28;20024;-68
2021/09/25 05:23:39;;;;;;;13.77;11.10;;;9.50;99.90;;;;;;5089386;28;20073;-67
2021/09/25 05:26:05;;;;;;;14.80;10.10;;;9.40;99.90;;;;;;5087570;28;20033;-67
2021/09/25 05:28:31;;;;;;;15.77;9.60;;;9.40;99.90;;;;;;5088155;28;20072;-65
2021/09/25 05:31:01;;;;;;;17.10;11.20;;;9.30;99.90;;;;;;5089988;28;20060;-65
2021/09/25 05:33:26;;;;;;;14.82;11.35;;;9.30;99.90;;;;;;5065945;28;20044;-65
2021/09/25 05:35:52;;;;;;;16.95;10.77;;;9.40;99.90;;;;;;5089762;28;20406;-66
2021/09/25 05:38:18;;;;;;;13.43;10.55;;;9.40;99.90;;;;;;5089332;28;20465;-68
2021/09/25 05:40:43;;;;;;;14.57;10.95;;;9.40;99.90;;;;;;5089493;28;20107;-69
2021/09/25 05:43:09;;;;;;;13.45;10.30;;;9.50;99.90;;;;;;5089189;28;20038;-69
2021/09/25 05:45:35;;;;;;;14.93;10.38;;;9.50;99.90;;;;;;5089521;28;20036;-66
2021/09/25 05:48:00;;;;;;;16.52;9.75;;;9.60;99.90;;;;;;5090112;28;20089;-66
2021/09/25 05:50:26;;;;;;;11.68;9.05;;;9.60;99.90;;;;;;5089366;28;20031;-66
2021/09/25 05:52:52;;;;;;;10.95;8.55;;;9.60;99.90;;;;;;5090053;28;20028;-66
2021/09/25 05:55:20;;;;;;;13.50;10.15;;;9.60;99.90;;;;;;5089574;28;20089;-69
2021/09/25 05:57:46;;;;;;;10.73;9.38;;;9.60;99.90;;;;;;5087323;28;20447;-66
2021/09/25 06:00:12;;;;;;;12.15;8.95;;;9.60;99.90;;;;;;5090449;28;20107;-66
2021/09/25 06:02:42;;;;;;;14.50;9.43;;;9.70;99.90;;;;;;5086949;28;20465;-66
2021/09/25 06:05:09;;;;;;;10.93;9.10;;;9.70;99.90;;;;;;5090731;28;20062;-65
2021/09/25 06:07:36;;;;;;;13.23;10.23;;;9.80;99.90;;;;;;5091570;28;20115;-66
2021/09/25 06:10:02;;;;;;;10.98;8.95;;;9.80;99.90;;;;;;5090807;28;20063;-65
2021/09/25 06:12:28;;;;;;;12.75;8.88;;;9.90;99.90;;;;;;5071025;28;20028;-68
2021/09/25 06:14:54;;;;;;;12.40;8.35;;;10.00;99.90;;;;;;5075272;28;20029;-68
2021/09/25 06:17:20;;;;;;;10.73;8.40;;;10.10;99.90;;;;;;5079497;28;20032;-68
2021/09/25 06:19:46;;;;;;;11.52;8.77;;;10.20;99.90;;;;;;5091178;28;20031;-68
2021/09/25 06:22:13;;;;;;;12.75;8.52;;;10.20;99.90;;;;;;5090516;28;20024;-67
2021/09/25 06:24:39;;;;;;;12.38;8.57;;;10.30;99.90;;;;;;5090750;28;20039;-68
2021/09/25 06:27:05;;;;;;;12.32;9.13;;;10.40;99.90;;;;;;5091048;28;20082;-68
2021/09/25 06:29:31;;;;;;;12.63;8.70;;;10.50;99.90;;;;;;5090355;28;20485;-68
2021/09/25 06:31:56;;;;;;;11.10;9.23;;;10.60;99.90;;;;;;5091070;28;20028;-68
2021/09/25 06:34:23;;;;;;;10.85;9.00;;;10.60;99.90;;;;;;5090086;28;20462;-68
2021/09/25 06:36:50;;;;;;;12.60;9.55;;;10.70;99.90;;;;;;5090637;28;20400;-69
2021/09/25 06:39:16;;;;;;;10.68;8.77;;;10.80;99.90;;;;;;5089982;28;20081;-68
2021/09/25 06:41:41;;;;;;;14.40;9.52;;;10.90;99.90;;;;;;5090853;28;20039;-70
2021/09/25 06:44:07;;;;;;;12.50;9.07;;;10.90;99.90;;;;;;5092858;28;20028;-68
2021/09/25 06:46:33;;;;;;;13.27;9.60;;;11.10;99.90;;;;;;5094187;28;20107;-68
2021/09/25 06:48:58;;;;;;;13.18;9.30;;;11.20;99.90;;;;;;5094595;28;20032;-68
2021/09/25 06:51:24;;;;;;;9.57;8.57;;;11.30;99.90;;;;;;5093586;28;20054;-68
2021/09/25 06:53:50;;;;;;;12.43;8.55;;;11.30;99.90;;;;;;5094370;28;20111;-66
2021/09/25 06:56:15;;;;;;;10.55;7.88;;;11.40;99.90;;;;;;5093644;28;20461;-68
2021/09/25 06:58:41;;;;;;;13.57;8.80;;;11.50;99.90;;;;;;5076263;28;20036;-68
2021/09/25 07:01:09;;;;;;;13.35;8.75;;;11.60;99.90;;;;;;5093982;28;20035;-68
2021/09/25 07:03:35;;;;;;;11.27;9.50;;;11.70;99.90;;;;;;5094077;28;20024;-71
2021/09/25 07:06:00;;;;;;;11.63;7.97;;;11.80;99.90;;;;;;5093901;28;20036;-69
2021/09/25 07:08:26;;;;;;;14.30;10.25;;;11.90;99.90;;;;;;5093662;28;20107;-70
2021/09/25 07:10:52;;;;;;;15.13;10.43;;;12.10;99.90;;;;;;5093841;28;20045;-67
2021/09/25 07:13:18;;;;;;;13.35;10.05;;;12.20;99.90;;;;;;5090935;28;20035;-66
2021/09/25 07:15:44;;;;;;;12.25;9.88;;;12.30;99.90;;;;;;5094161;28;20077;-67
2021/09/25 07:18:10;;;;;;;12.32;8.73;;;12.40;99.90;;;;;;5092926;28;20117;-66
2021/09/25 07:20:36;;;;;;;12.18;9.32;;;12.40;99.90;;;;;;5094117;28;20044;-67
2021/09/25 07:23:02;;;;;;;11.20;9.02;;;12.50;99.90;;;;;;5093783;28;20024;-67
2021/09/25 07:25:28;;;;;;;10.02;8.43;;;12.60;99.90;;;;;;5092529;28;20043;-66
2021/09/25 07:27:55;;;;;;;11.13;9.02;;;12.80;99.90;;;;;;5093639;28;20393;-67
2021/09/25 07:30:21;;;;;;;10.02;8.13;;;13.00;99.90;;;;;;5093062;28;20469;-65
2021/09/25 07:32:47;;;;;;;10.90;8.13;;;13.10;99.90;;;;;;5093187;28;20039;-63
2021/09/25 07:35:14;;;;;;;10.27;8.50;;;13.20;99.90;;;;;;5092792;28;20122;-66
2021/09/25 07:37:41;;;;;;;12.85;7.72;;;13.30;99.90;;;;;;5093534;28;20054;-66
2021/09/25 07:40:07;;;;;;;11.13;8.68;;;13.50;99.90;;;;;;5093527;28;20036;-67
2021/09/25 07:42:32;;;;;;;11.25;8.60;;;13.60;99.90;;;;;;5092294;28;20614;-68
2021/09/25 07:44:58;;;;;;;9.27;7.68;;;13.80;99.90;;;;;;5081746;28;20028;-67
2021/09/25 07:47:24;;;;;;;11.77;8.23;;;13.90;99.90;;;;;;5092326;28;20023;-67
2021/09/25 07:49:50;;;;;;;11.73;8.00;;;14.00;99.90;;;;;;5093836;28;20050;-67
2021/09/25 07:52:17;;;;;;;12.65;8.10;;;14.20;99.90;;;;;;5092348;28;20036;-67
2021/09/25 07:54:42;;;;;;;8.73;7.35;;;14.40;99.90;;;;;;5092438;28;20028;-67
2021/09/25 07:57:08;;;;;;;9.32;7.57;;;14.50;99.90;;;;;;5093121;28;20028;-67
2021/09/25 07:59:34;;;;;;;8.75;6.95;;;14.60;99.90;;;;;;5092137;28;20035;-67
2021/09/25 08:02:00;;;;;;;9.40;7.63;;;14.80;99.90;;;;;;5092993;28;20478;-68
2021/09/25 08:04:25;;;;;;;11.10;7.40;;;14.90;99.90;;;;;;5092488;28;20032;-67
2021/09/25 08:06:51;;;;;;;8.30;7.25;;;15.00;99.90;;;;;;5093196;28;20071;-67
2021/09/25 08:09:20;;;;;;;11.50;7.40;;;15.20;99.90;;;;;;5092653;28;20115;-66
2021/09/25 08:11:46;;;;;;;9.10;7.60;;;15.40;99.90;;;;;;5092851;28;20028;-67
2021/09/25 08:14:12;;;;;;;10.70;7.40;;;15.40;99.90;;;;;;5092556;28;20431;-66
2021/09/25 08:16:38;;;;;;;9.65;8.05;;;15.50;99.90;;;;;;5092170;28;20036;-66
2021/09/25 08:19:03;;;;;;;12.55;7.20;;;15.60;99.90;;;;;;5074150;28;20028;-71
2021/09/25 08:21:29;;;;;;;13.02;7.50;;;15.80;99.90;;;;;;5090890;28;20020;-79
2021/09/25 08:23:55;;;;;;;14.05;7.15;;;15.80;99.90;;;;;;5092872;28;20378;-67
2021/09/25 08:26:20;;;;;;;9.88;6.78;;;16.00;99.90;;;;;;5091531;28;20109;-71
2021/09/25 08:28:46;;;;;;;9.75;7.72;;;16.00;99.90;;;;;;5092578;28;20036;-69
2021/09/25 08:31:12;;;;;;;11.38;7.55;;;16.10;99.90;;;;;;5092415;28;20412;-69
2021/09/25 08:33:37;;;;;;;8.43;6.25;;;16.30;99.90;;;;;;5091275;28;20390;-74
2021/09/25 08:36:03;;;;;;;10.93;7.70;;;16.30;99.90;;;;;;5092558;28;20492;-83
2021/09/25 08:38:29;;;;;;;10.32;7.30;;;16.40;99.90;;;;;;5091905;28;20031;-73
2021/09/25 08:40:55;;;;;;;10.90;7.15;;;16.50;99.90;;;;;;5092545;28;20554;-72
2021/09/25 08:43:24;;;;;;;14.00;6.93;;;16.60;99.90;;;;;;5090984;28;20040;-68
2021/09/25 08:45:59;;;;;;;9.52;6.75;;;16.80;99.90;;;;;;5092090;28;20111;-68
2021/09/25 08:48:27;;;;;;;8.50;6.80;;;16.80;99.90;;;;;;5091157;28;20081;-69
2021/09/25 08:50:53;;;;;;;9.63;7.15;;;16.90;99.90;;;;;;5092137;28;20114;-68
2021/09/25 08:53:19;;;;;;;9.65;6.20;;;17.10;99.90;;;;;;5091099;28;20103;-68
2021/09/25 08:55:44;;;;;;;10.18;7.28;;;17.20;99.90;;;;;;5092080;28;20024;-71
2021/09/25 08:58:11;;;;;;;7.68;6.88;;;17.30;99.90;;;;;;5091582;28;20040;-73
2021/09/25 09:00:43;;;;;;;11.55;7.05;;;17.40;99.90;;;;;;5091623;28;20032;-71
2021/09/25 09:03:24;;;;;;;11.40;6.70;;;17.60;99.90;;;;;;5091846;28;20035;-71
2021/09/25 09:05:55;;;;;;;9.77;6.57;;;17.70;99.90;;;;;;5091502;28;20032;-72
2021/09/25 09:08:22;;;;;;;9.48;7.53;;;17.90;99.90;;;;;;5090398;28;20410;-65
2021/09/25 09:10:49;;;;;;;9.75;6.90;;;18.10;99.90;;;;;;5092280;28;20020;-66
2021/09/25 09:13:17;;;;;;;8.38;6.95;;;18.20;99.90;;;;;;5091066;28;20471;-65
2021/09/25 09:15:43;;;;;;;8.18;6.43;;;18.20;99.90;;;;;;5091953;28;20114;-68
2021/09/25 09:18:17;;;;;;;10.75;6.97;;;18.30;99.90;;;;;;5091710;28;20036;-70
2021/09/25 09:21:03;;;;;;;8.57;6.82;;;18.40;99.90;;;;;;5091750;28;20466;-71
2021/09/25 09:23:31;;;;;;;10.35;7.15;;;18.50;99.90;;;;;;5087902;28;20085;-71
2021/09/25 09:25:57;;;;;;;7.13;6.13;;;18.50;99.90;;;;;;5092060;28;20089;-75
2021/09/25 09:28:26;;;;;;;7.22;5.78;;;18.60;99.90;;;;;;5072260;28;20082;-75
2021/09/25 09:30:54;;;;;;;8.10;6.13;;;18.60;99.90;;;;;;5091891;28;20104;-84
2021/09/25 09:33:28;;;;;;;9.98;6.57;;;18.90;99.90;;;;;;5073006;28;20107;-82
2021/09/25 09:36:13;;;;;;;11.35;6.05;;;19.10;99.90;;;;;;5083675;28;20032;-74
2021/09/25 09:38:49;;;;;;;11.52;6.15;;;19.40;99.90;;;;;;5091314;28;20063;-81
2021/09/25 09:41:16;;;;;;;11.40;5.97;;;19.70;99.00;;;;;;5091615;28;20048;-81
2021/09/25 09:43:42;;;;;;;9.55;6.45;;;19.80;98.70;;;;;;5091167;28;20032;-80
2021/09/25 09:46:08;;;;;;;9.23;5.78;;;20.00;99.40;;;;;;5091357;28;20449;-83
2021/09/25 09:48:34;;;;;;;7.38;5.65;;;;;;;;;;5091106;28;20760;-81
2021/09/25 09:51:00;;;;;;;9.63;5.63;;;20.30;97.70;;;;;;5091803;28;20484;-77
2021/09/25 09:53:30;;;;;;;13.23;5.70;;;20.50;97.70;;;;;;5092430;28;20099;-81
2021/09/25 09:56:15;;;;;;;10.65;5.40;;;20.60;96.80;;;;;;5093145;28;20024;-75
2021/09/25 09:58:41;;;;;;;5.90;5.28;;;20.80;96.60;;;;;;5084787;28;20905;-70
2021/09/25 10:01:08;;;;;;;6.50;5.47;;;21.00;96.20;;;;;;5088322;28;20043;-68
2021/09/25 10:03:33;;;;;;;10.25;6.07;;;21.20;95.60;;;;;;5092210;28;20028;-72
2021/09/25 10:05:59;;;;;;;10.27;5.38;;;21.40;94.50;;;;;;5091926;28;20082;-69
2021/09/25 10:08:26;;;;;;;8.15;5.93;;;21.60;94.30;;;;;;5090717;28;20032;-72
2021/09/25 10:10:52;;;;;;;6.50;5.35;;;21.60;94.10;;;;;;5091536;28;20029;-70
2021/09/25 10:13:20;;;;;;;6.85;4.95;;;21.80;93.40;;;;;;5089993;28;20435;-69
2021/09/25 10:15:46;;;;;;;6.53;5.53;;;21.80;92.90;;;;;;5091264;28;20032;-71
2021/09/25 10:18:12;;;;;;;7.78;5.57;;;21.90;92.90;;;;;;5091965;28;20035;-70
2021/09/25 10:20:39;;;;;;;10.30;5.07;;;22.00;93.10;;;;;;5094671;28;20198;-70
2021/09/25 10:23:05;;;;;;;5.15;4.60;;;22.20;91.30;;;;;;5095049;28;20032;-70
2021/09/25 10:25:30;;;;;;;4.80;4.35;;;22.20;90.90;;;;;;5094443;28;20072;-70
2021/09/25 10:27:57;;;;;;;6.45;4.60;;;22.30;90.50;;;;;;5094579;28;20050;-70
2021/09/25 10:30:34;;;;;;;8.45;4.43;;;22.40;90.00;;;;;;5093657;28;20485;-70
2021/09/25 10:33:13;;;;;;;5.22;4.63;;;22.60;88.80;;;;;;5094691;28;20047;-71
2021/09/25 10:35:39;;;;;;;5.65;4.88;;;22.60;87.50;;;;;;5073307;28;20482;-69
2021/09/25 10:38:05;;;;;;;5.20;4.70;;;22.70;86.90;;;;;;5094310;28;20028;-69
2021/09/25 10:40:39;;;;;;;6.72;4.57;;;22.80;86.50;;;;;;5093358;28;20028;-68
2021/09/25 10:43:17;;;;;;;7.28;4.55;;;23.00;85.50;;;;;;5094786;28;20497;-69
2021/09/25 10:45:47;;;;;;;5.22;4.72;;;23.20;84.40;;;;;;5093851;28;20036;-69
2021/09/25 10:48:22;;;;;;;4.68;3.90;;;23.50;88.90;;;;;;5092785;28;20040;-69
2021/09/25 10:50:54;;;;;;;5.60;4.22;;;23.60;92.70;;;;;;5094803;28;20063;-69
2021/09/25 10:53:28;;;;;;;6.88;4.30;;;23.70;92.10;;;;;;5094585;28;20036;-72
2021/09/25 10:55:58;;;;;;;7.43;4.35;;;23.70;99.60;;;;;;5086836;28;20028;-69
2021/09/25 10:58:25;;;;;;;4.28;3.85;;;23.80;78.50;;;;;;5088933;28;20465;-69
2021/09/25 11:00:54;;;;;;;5.55;4.05;;;23.80;78.90;;;;;;5087843;28;20051;-69
2021/09/25 11:03:58;;;;;;;6.32;3.97;;;23.90;78.30;;;;;;5093767;28;20035;-69
2021/09/25 11:06:27;;;;;;;4.57;3.85;;;24.10;77.60;;;;;;5093229;28;20120;-68
2021/09/25 11:08:56;;;;;;;4.10;3.35;;;24.20;77.30;;;;;;5092152;28;20082;-68
2021/09/25 11:11:47;;;;;;;4.07;3.63;;;24.30;76.20;;;;;;5083345;28;20024;-68
2021/09/25 11:14:14;;;;;;;5.72;3.72;;;24.40;75.80;;;;;;5090956;28;20032;-68
2021/09/25 11:16:57;;;;;;;3.83;3.45;;;24.50;74.90;;;;;;5092716;28;20042;-67
2021/09/25 11:19:22;;;;;;;3.88;3.42;;;24.70;74.50;;;;;;5090597;28;20028;-68
2021/09/25 11:21:49;;;;;;;4.28;3.88;;;24.80;74.00;;;;;;5093459;28;20470;-68
2021/09/25 11:24:18;;;;;;;4.07;3.63;;;25.00;74.10;;;;;;5093935;28;20028;-68
2021/09/25 11:26:44;;;;;;;5.70;3.25;;;;;;;;;;5093224;28;20028;-67
2021/09/25 11:29:10;;;;;;;3.92;3.53;;;25.30;71.20;;;;;;5093314;28;20024;-67
2021/09/25 11:31:37;;;;;;;4.43;3.47;;;25.40;71.10;;;;;;5092932;28;20377;-68
2021/09/25 11:34:18;;;;;;;3.60;3.30;;;25.60;70.30;;;;;;5094195;28;20123;-68
2021/09/25 11:36:52;;;;;;;5.22;3.67;;;25.80;69.90;;;;;;5092859;28;20031;-68
2021/09/25 11:39:23;;;;;;;4.95;3.83;;;26.10;69.00;;;;;;5093712;28;20039;-68
2021/09/25 11:42:07;;;;;;;3.95;3.28;;;;;;;;;;5093145;28;20046;-68
2021/09/25 11:44:42;;;;;;;3.88;3.10;;;;;;;;;;5091901;28;20127;-70
2021/09/25 11:47:08;;;;;;;3.85;3.47;;;27.10;65.00;;;;;;5093452;28;20105;-70
2021/09/25 11:49:35;;;;;;;6.68;3.45;;;27.10;66.00;;;;;;5092074;28;20070;-66
2021/09/25 11:52:01;;;;;;;3.65;3.33;;;27.30;64.90;;;;;;5093244;28;20032;-68
2021/09/25 11:54:27;;;;;;;5.13;4.05;;;27.40;64.70;;;;;;5092098;28;20393;-72
2021/09/25 11:56:53;;;;;;;3.63;3.33;;;27.60;65.00;;;;;;5092955;28;20086;-73
2021/09/25 11:59:21;;;;;;;3.50;3.20;;;;;;;;;;5094650;28;20539;-72
2021/09/25 12:01:47;;;;;;;3.85;3.47;;;;;;;;;;5093463;28;20024;-73
2021/09/25 12:04:14;;;;;;;4.90;3.47;;;;;;;;;;5093003;28;20099;-71
2021/09/25 12:06:53;;;;;;;4.60;4.20;;;;;;;;;;5092164;28;20098;-73
2021/09/25 12:09:38;;;;;;;4.18;3.40;;;;;;;;;;5093125;28;20032;-78
2021/09/25 12:12:04;;;;;;;3.65;3.15;;;;;;;;;;5093408;28;20089;-73
2021/09/25 12:14:33;;;;;;;6.70;3.47;;;;;;;;;;5092824;28;20039;-71
2021/09/25 12:17:00;;;;;;;4.47;3.72;;;;;;;;;;5092866;28;20607;-67
2021/09/25 12:19:26;;;;;;;3.67;3.38;;;;;;;;;;5091974;28;20028;-67
2021/09/25 12:21:52;;;;;;;2.90;2.70;;;;;;;;;;5092553;28;20381;-75
2021/09/25 12:24:18;;;;;;;3.60;3.28;;;;;;;;;;5092843;28;20036;-68
2021/09/25 12:26:45;;;;;;;3.47;3.17;;;;;;;;;;5091511;28;20040;-67
2021/09/25 12:29:15;;;;;;;3.42;3.10;;;27.80;62.90;;;;;;5092746;28;20825;-68
2021/09/25 12:31:41;;;;;;;4.05;2.92;;;29.10;55.90;;;;;;5091362;28;20484;-67
2021/09/25 12:34:11;;;;;;;3.03;2.83;;;29.10;55.10;;;;;;5092673;28;20059;-67
2021/09/25 12:36:39;;;;;;;4.60;2.90;;;29.30;54.60;;;;;;5091540;28;20110;-67
2021/09/25 12:39:08;;;;;;;4.53;2.80;;;29.50;83.30;;;;;;5092201;28;20032;-67
2021/09/25 12:41:35;;;;;;;2.70;2.50;;;29.70;74.50;;;;;;5090535;28;20093;-68
2021/09/25 12:44:04;;;;;;;4.28;2.78;;;29.90;75.30;;;;;;5092401;28;20048;-68
2021/09/25 12:46:41;;;;;;;3.03;2.83;;;30.10;75.20;;;;;;5073517;28;20028;-67